Treece, Kansas
Current Conditions -  °F | °C
As of 6:53 AM on Thursday 18 Dec 2014 (Local Time) from KJLN Reporting Station
Haze Haze  
Wind Chill: 31°   Ceiling: 400
Heat Index: 35°   Visibility: 5mi
Dew Point: 34°   Wind: 5mph
Humidity: 96%   Direction: 90°E
Pressure: 30.17"   Gusts: NA
Location:  37°N, 94.84°W
Report Text: KJLN 181253Z 09004KT 5SM BR OVC004 02/01 A3017 RMK AO2 SLP223 T00170011
Loading
Personal Weather Stations






























Interactive Weather Map New forecast layout! Learn more

10-Day Weather Forecast

Advertisements
Track Severe Weather on mobile